Grenora, North Dakota
Current Conditions -  °F | °C
As of 11:12 AM on Monday 22 Dec 2014 (Local Time) from KISN Reporting Station
Haze Haze  
Wind Chill: 13°   Ceiling: 900
Heat Index: 26°   Visibility: 6mi
Dew Point: 23°   Wind: 17mph
Humidity: 88%   Direction: 350°N
Pressure: 29.6"   Gusts: 26mph
Location:  48.62°N, 103.94°W
Report Text: KISN 221712Z AUTO 35015G23KT 6SM BR OVC009 M03/M05 A2960 RMK AO2 T10331050
Loading
Personal Weather Stations






























Interactive Weather Map New forecast layout! Learn more

10-Day Weather Forecast

Advertisements
Track Severe Weather on mobile